sensor_id;sensor_type;location;lat;lon;timestamp;pressure;altitude;pressure_sealevel;temperature;humidity
43745;BME280;29359;53.048;8.732;2023-04-06T00:01:25;102075.94;;;2.13;80.55
43745;BME280;29359;53.048;8.732;2023-04-06T00:03:26;102074.97;;;2.09;80.67
43745;BME280;29359;53.048;8.732;2023-04-06T00:05:28;102072.28;;;2.06;80.51
43745;BME280;29359;53.048;8.732;2023-04-06T00:07:31;102072.22;;;2.03;80.71
43745;BME280;29359;53.048;8.732;2023-04-06T00:09:34;102072.13;;;2.00;80.59
43745;BME280;29359;53.048;8.732;2023-04-06T00:11:36;102068.56;;;1.97;80.59
43745;BME280;29359;53.048;8.732;2023-04-06T00:13:37;102064.06;;;1.91;80.76
43745;BME280;29359;53.048;8.732;2023-04-06T00:15:39;102064.00;;;1.88;80.48
43745;BME280;29359;53.048;8.732;2023-04-06T00:17:40;102065.69;;;1.86;80.56
43745;BME280;29359;53.048;8.732;2023-04-06T00:19:42;102063.84;;;1.82;80.36
43745;BME280;29359;53.048;8.732;2023-04-06T00:21:43;102065.50;;;1.80;80.85
43745;BME280;29359;53.048;8.732;2023-04-06T00:23:45;102067.19;;;1.78;80.73
43745;BME280;29359;53.048;8.732;2023-04-06T00:25:47;102066.28;;;1.76;80.69
43745;BME280;29359;53.048;8.732;2023-04-06T00:27:48;102057.47;;;1.72;80.79
43745;BME280;29359;53.048;8.732;2023-04-06T00:30:11;102054.75;;;1.68;80.72
43745;BME280;29359;53.048;8.732;2023-04-06T00:32:13;102056.38;;;1.64;80.98
43745;BME280;29359;53.048;8.732;2023-04-06T00:34:15;102051.94;;;1.60;81.26
43745;BME280;29359;53.048;8.732;2023-04-06T00:36:17;102045.75;;;1.56;80.84
43745;BME280;29359;53.048;8.732;2023-04-06T00:38:18;102052.63;;;1.54;81.25
43745;BME280;29359;53.048;8.732;2023-04-06T00:40:20;102047.34;;;1.51;80.76
43745;BME280;29359;53.048;8.732;2023-04-06T00:42:22;102045.59;;;1.50;80.88
43745;BME280;29359;53.048;8.732;2023-04-06T00:44:27;102041.13;;;1.46;80.96
43745;BME280;29359;53.048;8.732;2023-04-06T00:46:29;102039.38;;;1.45;81.09
43745;BME280;29359;53.048;8.732;2023-04-06T00:48:31;102042.84;;;1.46;81.53
43745;BME280;29359;53.048;8.732;2023-04-06T00:50:33;102041.94;;;1.44;81.27
43745;BME280;29359;53.048;8.732;2023-04-06T00:52:34;102036.69;;;1.42;81.15
43745;BME280;29359;53.048;8.732;2023-04-06T00:54:37;102039.25;;;1.41;81.18
43745;BME280;29359;53.048;8.732;2023-04-06T00:56:38;102037.44;;;1.38;80.91
43745;BME280;29359;53.048;8.732;2023-04-06T00:58:40;102040.84;;;1.36;80.96
43745;BME280;29359;53.048;8.732;2023-04-06T01:00:42;102031.19;;;1.32;80.63
43745;BME280;29359;53.048;8.732;2023-04-06T01:02:43;102018.94;;;1.29;81.10
43745;BME280;29359;53.048;8.732;2023-04-06T01:04:46;102036.22;;;1.27;81.19
43745;BME280;29359;53.048;8.732;2023-04-06T01:06:49;102028.34;;;1.24;81.05
43745;BME280;29359;53.048;8.732;2023-04-06T01:08:51;102030.84;;;1.21;81.22
43745;BME280;29359;53.048;8.732;2023-04-06T01:10:52;102028.19;;;1.19;81.37
43745;BME280;29359;53.048;8.732;2023-04-06T01:12:54;102025.50;;;1.16;81.29
43745;BME280;29359;53.048;8.732;2023-04-06T01:14:56;102023.72;;;1.14;81.08
43745;BME280;29359;53.048;8.732;2023-04-06T01:16:58;102019.22;;;1.08;80.90
43745;BME280;29359;53.048;8.732;2023-04-06T01:19:06;102024.31;;;1.05;81.39
43745;BME280;29359;53.048;8.732;2023-04-06T01:21:09;102019.91;;;1.03;81.40
43745;BME280;29359;53.048;8.732;2023-04-06T01:23:16;102022.47;;;1.01;81.30
43745;BME280;29359;53.048;8.732;2023-04-06T01:25:18;102018.94;;;0.99;80.81
43745;BME280;29359;53.048;8.732;2023-04-06T01:27:19;102015.41;;;0.97;81.39
43745;BME280;29359;53.048;8.732;2023-04-06T01:29:21;102022.28;;;0.95;80.80
43745;BME280;29359;53.048;8.732;2023-04-06T01:31:24;102015.31;;;0.94;81.53
43745;BME280;29359;53.048;8.732;2023-04-06T01:33:25;102012.69;;;0.92;81.50
43745;BME280;29359;53.048;8.732;2023-04-06T01:35:27;102011.81;;;0.92;80.79
43745;BME280;29359;53.048;8.732;2023-04-06T01:37:29;102016.06;;;0.90;81.11
43745;BME280;29359;53.048;8.732;2023-04-06T01:39:33;102009.94;;;0.88;81.22
43745;BME280;29359;53.048;8.732;2023-04-06T01:41:34;102009.06;;;0.87;80.89
43745;BME280;29359;53.048;8.732;2023-04-06T01:43:36;102006.38;;;0.86;80.70
43745;BME280;29359;53.048;8.732;2023-04-06T01:45:38;102007.19;;;0.83;80.54
43745;BME280;29359;53.048;8.732;2023-04-06T01:47:39;102006.25;;;0.81;80.55
43745;BME280;29359;53.048;8.732;2023-04-06T01:49:41;101999.25;;;0.79;80.55
43745;BME280;29359;53.048;8.732;2023-04-06T01:51:43;102000.91;;;0.77;80.78
43745;BME280;29359;53.048;8.732;2023-04-06T01:53:44;101999.16;;;0.76;80.83
43745;BME280;29359;53.048;8.732;2023-04-06T01:55:46;101996.50;;;0.74;80.83
43745;BME280;29359;53.048;8.732;2023-04-06T01:57:48;101994.69;;;0.72;80.81
43745;BME280;29359;53.048;8.732;2023-04-06T01:59:49;101996.31;;;0.68;81.11
43745;BME280;29359;53.048;8.732;2023-04-06T02:01:51;101996.31;;;0.68;80.98
43745;BME280;29359;53.048;8.732;2023-04-06T02:03:53;101994.56;;;0.67;80.78
43745;BME280;29359;53.048;8.732;2023-04-06T02:05:54;101988.38;;;0.63;81.15
43745;BME280;29359;53.048;8.732;2023-04-06T02:07:56;101991.03;;;0.65;80.49
43745;BME280;29359;53.048;8.732;2023-04-06T02:09:58;101989.22;;;0.62;80.79
43745;BME280;29359;53.048;8.732;2023-04-06T02:11:59;101981.38;;;0.61;80.57
43745;BME280;29359;53.048;8.732;2023-04-06T02:14:02;101984.78;;;0.58;80.33
43745;BME280;29359;53.048;8.732;2023-04-06T02:16:04;101981.25;;;0.56;80.98
43745;BME280;29359;53.048;8.732;2023-04-06T02:18:06;101973.41;;;0.55;80.89
43745;BME280;29359;53.048;8.732;2023-04-06T02:20:08;101980.28;;;0.53;80.65
43745;BME280;29359;53.048;8.732;2023-04-06T02:22:10;101981.09;;;0.52;80.57
43745;BME280;29359;53.048;8.732;2023-04-06T02:24:12;101975.81;;;0.49;80.94
43745;BME280;29359;53.048;8.732;2023-04-06T02:26:13;101976.66;;;0.48;80.27
43745;BME280;29359;53.048;8.732;2023-04-06T02:28:15;101974.84;;;0.45;80.92
43745;BME280;29359;53.048;8.732;2023-04-06T02:30:17;101979.16;;;0.45;80.42
43745;BME280;29359;53.048;8.732;2023-04-06T02:32:19;101976.56;;;0.45;80.85
43745;BME280;29359;53.048;8.732;2023-04-06T02:34:21;101981.66;;;0.43;80.44
43745;BME280;29359;53.048;8.732;2023-04-06T02:36:22;101972.94;;;0.41;80.53
43745;BME280;29359;53.048;8.732;2023-04-06T02:38:24;101972.91;;;0.40;80.48
43745;BME280;29359;53.048;8.732;2023-04-06T02:40:25;101967.66;;;0.38;80.58
43745;BME280;29359;53.048;8.732;2023-04-06T02:42:27;101976.28;;;0.37;80.27
43745;BME280;29359;53.048;8.732;2023-04-06T02:44:29;101966.69;;;0.35;80.74
43745;BME280;29359;53.048;8.732;2023-04-06T02:46:30;101964.88;;;0.32;80.60
43745;BME280;29359;53.048;8.732;2023-04-06T02:48:32;101975.22;;;0.30;80.46
43745;BME280;29359;53.048;8.732;2023-04-06T02:50:37;101972.56;;;0.29;80.29
43745;BME280;29359;53.048;8.732;2023-04-06T02:52:38;101965.56;;;0.26;79.95
43745;BME280;29359;53.048;8.732;2023-04-06T02:54:40;101962.91;;;0.25;80.29
43745;BME280;29359;53.048;8.732;2023-04-06T02:56:41;101964.59;;;0.23;80.30
43745;BME280;29359;53.048;8.732;2023-04-06T02:58:43;101960.22;;;0.22;80.10
43745;BME280;29359;53.048;8.732;2023-04-06T03:00:45;101964.50;;;0.20;80.41
43745;BME280;29359;53.048;8.732;2023-04-06T03:02:46;101955.78;;;0.18;80.32
43745;BME280;29359;53.048;8.732;2023-04-06T03:04:48;101960.91;;;0.16;80.07
43745;BME280;29359;53.048;8.732;2023-04-06T03:06:50;101962.59;;;0.14;80.20
43745;BME280;29359;53.048;8.732;2023-04-06T03:08:51;101957.38;;;0.14;80.13
43745;BME280;29359;53.048;8.732;2023-04-06T03:10:53;101960.78;;;0.12;80.57
43745;BME280;29359;53.048;8.732;2023-04-06T03:12:55;101952.09;;;0.11;80.17
43745;BME280;29359;53.048;8.732;2023-04-06T03:14:56;101956.34;;;0.09;80.16
43745;BME280;29359;53.048;8.732;2023-04-06T03:16:58;101952.88;;;0.09;79.96
43745;BME280;29359;53.048;8.732;2023-04-06T03:18:59;101947.66;;;0.07;80.35
43745;BME280;29359;53.048;8.732;2023-04-06T03:21:01;101947.59;;;0.06;79.76
43745;BME280;29359;53.048;8.732;2023-04-06T03:23:02;101951.84;;;0.04;79.84
43745;BME280;29359;53.048;8.732;2023-04-06T03:25:04;101957.84;;;0.01;79.75
43745;BME280;29359;53.048;8.732;2023-04-06T03:27:06;101946.47;;;-0.01;79.63
43745;BME280;29359;53.048;8.732;2023-04-06T03:29:07;101950.78;;;-0.02;79.77
43745;BME280;29359;53.048;8.732;2023-04-06T03:31:09;101946.44;;;-0.03;79.94
43745;BME280;29359;53.048;8.732;2023-04-06T03:33:11;101948.16;;;-0.03;79.97
43745;BME280;29359;53.048;8.732;2023-04-06T03:35:13;101939.44;;;-0.05;79.89
43745;BME280;29359;53.048;8.732;2023-04-06T03:37:14;101949.75;;;-0.07;79.72
43745;BME280;29359;53.048;8.732;2023-04-06T03:39:16;101950.59;;;-0.08;79.98
43745;BME280;29359;53.048;8.732;2023-04-06T03:41:17;101943.63;;;-0.09;79.55
43745;BME280;29359;53.048;8.732;2023-04-06T03:43:19;101947.03;;;-0.11;79.37
43745;BME280;29359;53.048;8.732;2023-04-06T03:45:21;101954.75;;;-0.13;79.57
43745;BME280;29359;53.048;8.732;2023-04-06T03:47:22;101950.41;;;-0.14;79.70
43745;BME280;29359;53.048;8.732;2023-04-06T03:49:24;101945.16;;;-0.15;79.49
43745;BME280;29359;53.048;8.732;2023-04-06T03:51:27;101944.22;;;-0.17;79.53
43745;BME280;29359;53.048;8.732;2023-04-06T03:53:28;101948.53;;;-0.18;79.16
43745;BME280;29359;53.048;8.732;2023-04-06T03:55:30;101945.88;;;-0.19;79.69
43745;BME280;29359;53.048;8.732;2023-04-06T03:57:31;101946.66;;;-0.22;79.19
43745;BME280;29359;53.048;8.732;2023-04-06T03:59:33;101946.63;;;-0.23;79.37
43745;BME280;29359;53.048;8.732;2023-04-06T04:01:35;101950.03;;;-0.24;79.46
43745;BME280;29359;53.048;8.732;2023-04-06T04:03:36;101950.88;;;-0.25;79.47
43745;BME280;29359;53.048;8.732;2023-04-06T04:05:38;101953.41;;;-0.27;79.14
43745;BME280;29359;53.048;8.732;2023-04-06T04:07:39;101950.81;;;-0.27;79.63
43745;BME280;29359;53.048;8.732;2023-04-06T04:09:41;101952.53;;;-0.27;79.05
43745;BME280;29359;53.048;8.732;2023-04-06T04:11:43;101953.38;;;-0.28;78.70
43745;BME280;29359;53.048;8.732;2023-04-06T04:13:44;101958.50;;;-0.30;78.80
43745;BME280;29359;53.048;8.732;2023-04-06T04:15:46;101953.28;;;-0.32;79.05
43745;BME280;29359;53.048;8.732;2023-04-06T04:17:48;101954.94;;;-0.34;79.22
43745;BME280;29359;53.048;8.732;2023-04-06T04:19:50;101958.31;;;-0.36;79.03
43745;BME280;29359;53.048;8.732;2023-04-06T04:21:52;101953.94;;;-0.37;78.69
43745;BME280;29359;53.048;8.732;2023-04-06T04:23:53;101959.97;;;-0.38;78.45
43745;BME280;29359;53.048;8.732;2023-04-06T04:25:55;101955.56;;;-0.41;78.51
43745;BME280;29359;53.048;8.732;2023-04-06T04:27:57;101958.97;;;-0.42;78.66
43745;BME280;29359;53.048;8.732;2023-04-06T04:29:58;101947.63;;;-0.44;78.84
43745;BME280;29359;53.048;8.732;2023-04-06T04:32:00;101945.88;;;-0.45;78.63
43745;BME280;29359;53.048;8.732;2023-04-06T04:34:02;101952.78;;;-0.45;78.85
43745;BME280;29359;53.048;8.732;2023-04-06T04:36:03;101958.78;;;-0.46;78.52
43745;BME280;29359;53.048;8.732;2023-04-06T04:38:05;101962.22;;;-0.47;78.72
43745;BME280;29359;53.048;8.732;2023-04-06T04:40:08;101956.13;;;-0.48;78.48
43745;BME280;29359;53.048;8.732;2023-04-06T04:42:09;101956.97;;;-0.49;78.62
43745;BME280;29359;53.048;8.732;2023-04-06T04:44:11;101956.03;;;-0.51;78.77
43745;BME280;29359;53.048;8.732;2023-04-06T04:46:13;101962.94;;;-0.51;78.31
43745;BME280;29359;53.048;8.732;2023-04-06T04:48:15;101959.47;;;-0.52;78.35
43745;BME280;29359;53.048;8.732;2023-04-06T04:50:16;101960.28;;;-0.53;78.54
43745;BME280;29359;53.048;8.732;2023-04-06T04:52:18;101957.69;;;-0.53;78.59
43745;BME280;29359;53.048;8.732;2023-04-06T04:54:20;101949.88;;;-0.54;78.30
43745;BME280;29359;53.048;8.732;2023-04-06T04:56:21;101956.81;;;-0.53;78.55
43745;BME280;29359;53.048;8.732;2023-04-06T04:58:23;101953.34;;;-0.54;78.45
43745;BME280;29359;53.048;8.732;2023-04-06T05:00:24;101954.16;;;-0.55;78.15
43745;BME280;29359;53.048;8.732;2023-04-06T05:02:27;101955.94;;;-0.54;78.12
43745;BME280;29359;53.048;8.732;2023-04-06T05:04:28;101956.81;;;-0.53;78.20
43745;BME280;29359;53.048;8.732;2023-04-06T05:06:30;101955.94;;;-0.54;78.20
43745;BME280;29359;53.048;8.732;2023-04-06T05:08:32;101956.81;;;-0.53;78.24
43745;BME280;29359;53.048;8.732;2023-04-06T05:10:34;101957.75;;;-0.51;77.87
43745;BME280;29359;53.048;8.732;2023-04-06T05:12:37;101951.72;;;-0.50;78.04
43745;BME280;29359;53.048;8.732;2023-04-06T05:14:39;101955.25;;;-0.48;77.94
43745;BME280;29359;53.048;8.732;2023-04-06T05:16:41;101948.41;;;-0.46;78.03
43745;BME280;29359;53.048;8.732;2023-04-06T05:18:42;101955.41;;;-0.44;77.76
43745;BME280;29359;53.048;8.732;2023-04-06T05:20:44;101952.03;;;-0.43;77.48
43745;BME280;29359;53.048;8.732;2023-04-06T05:22:48;101957.38;;;-0.38;77.64
43745;BME280;29359;53.048;8.732;2023-04-06T05:24:50;101949.69;;;-0.35;77.34
43745;BME280;29359;53.048;8.732;2023-04-06T05:26:55;101954.16;;;-0.31;77.33
43745;BME280;29359;53.048;8.732;2023-04-06T05:29:00;101951.72;;;-0.26;77.20
43745;BME280;29359;53.048;8.732;2023-04-06T05:31:02;101941.44;;;-0.23;76.81
43745;BME280;29359;53.048;8.732;2023-04-06T05:33:04;101944.16;;;-0.19;76.92
43745;BME280;29359;53.048;8.732;2023-04-06T05:35:08;101953.81;;;-0.15;76.90
43745;BME280;29359;53.048;8.732;2023-04-06T05:37:10;101959.13;;;-0.12;77.17
43745;BME280;29359;53.048;8.732;2023-04-06T05:39:12;101958.44;;;-0.06;77.03
43745;BME280;29359;53.048;8.732;2023-04-06T05:41:14;101952.50;;;-0.02;77.06
43745;BME280;29359;53.048;8.732;2023-04-06T05:43:15;101944.91;;;0.03;77.10
43745;BME280;29359;53.048;8.732;2023-04-06T05:45:17;101953.72;;;0.08;76.71
43745;BME280;29359;53.048;8.732;2023-04-06T05:47:19;101952.09;;;0.11;76.70
43745;BME280;29359;53.048;8.732;2023-04-06T05:49:21;101946.16;;;0.15;76.55
43745;BME280;29359;53.048;8.732;2023-04-06T05:51:22;101948.97;;;0.21;76.09
43745;BME280;29359;53.048;8.732;2023-04-06T05:53:24;101948.22;;;0.25;76.26
43745;BME280;29359;53.048;8.732;2023-04-06T05:55:27;101944.88;;;0.29;76.36
43745;BME280;29359;53.048;8.732;2023-04-06T05:57:29;101951.09;;;0.35;75.66
43745;BME280;29359;53.048;8.732;2023-04-06T05:59:31;101940.84;;;0.39;76.04
43745;BME280;29359;53.048;8.732;2023-04-06T06:01:33;101947.84;;;0.42;75.81
43745;BME280;29359;53.048;8.732;2023-04-06T06:03:36;101948.06;;;0.48;75.22
43745;BME280;29359;53.048;8.732;2023-04-06T06:05:37;101940.38;;;0.51;75.56
43745;BME280;29359;53.048;8.732;2023-04-06T06:07:39;101945.66;;;0.54;75.16
43745;BME280;29359;53.048;8.732;2023-04-06T06:09:40;101947.50;;;0.58;75.46
43745;BME280;29359;53.048;8.732;2023-04-06T06:11:42;101946.75;;;0.62;75.39
43745;BME280;29359;53.048;8.732;2023-04-06T06:13:43;101949.47;;;0.65;75.07
43745;BME280;29359;53.048;8.732;2023-04-06T06:15:45;101955.63;;;0.69;75.43
43745;BME280;29359;53.048;8.732;2023-04-06T06:17:47;101953.16;;;0.73;75.40
43745;BME280;29359;53.048;8.732;2023-04-06T06:19:48;101952.41;;;0.77;74.69
43745;BME280;29359;53.048;8.732;2023-04-06T06:21:50;101949.91;;;0.80;74.77
43745;BME280;29359;53.048;8.732;2023-04-06T06:23:52;101953.47;;;0.84;75.01
43745;BME280;29359;53.048;8.732;2023-04-06T06:25:55;101951.00;;;0.87;74.73
43745;BME280;29359;53.048;8.732;2023-04-06T06:27:59;101952.88;;;0.92;74.40
43745;BME280;29359;53.048;8.732;2023-04-06T06:30:01;101952.09;;;0.95;74.53
43745;BME280;29359;53.048;8.732;2023-04-06T06:32:03;101946.13;;;0.99;74.74
43745;BME280;29359;53.048;8.732;2023-04-06T06:34:05;101944.53;;;1.04;74.49
43745;BME280;29359;53.048;8.732;2023-04-06T06:36:06;101943.78;;;1.08;74.25
43745;BME280;29359;53.048;8.732;2023-04-06T06:38:08;101955.22;;;1.13;74.22
43745;BME280;29359;53.048;8.732;2023-04-06T06:40:10;101953.56;;;1.17;74.21
43745;BME280;29359;53.048;8.732;2023-04-06T06:42:14;101954.56;;;1.22;74.75
43745;BME280;29359;53.048;8.732;2023-04-06T06:44:16;101953.78;;;1.24;74.70
43745;BME280;29359;53.048;8.732;2023-04-06T06:46:18;101947.91;;;1.30;74.08
43745;BME280;29359;53.048;8.732;2023-04-06T06:48:19;101948.06;;;1.36;73.97
43745;BME280;29359;53.048;8.732;2023-04-06T06:50:21;101945.56;;;1.41;74.54
43745;BME280;29359;53.048;8.732;2023-04-06T06:52:22;101952.59;;;1.43;74.29
43745;BME280;29359;53.048;8.732;2023-04-06T06:54:25;101941.41;;;1.47;73.79
43745;BME280;29359;53.048;8.732;2023-04-06T06:56:26;101946.78;;;1.53;74.08
43745;BME280;29359;53.048;8.732;2023-04-06T06:58:29;101941.72;;;1.60;73.87
43745;BME280;29359;53.048;8.732;2023-04-06T07:00:30;101936.63;;;1.64;74.00
43745;BME280;29359;53.048;8.732;2023-04-06T07:02:34;101933.31;;;1.70;73.55
43745;BME280;29359;53.048;8.732;2023-04-06T07:04:35;101938.72;;;1.76;73.82
43745;BME280;29359;53.048;8.732;2023-04-06T07:06:37;101931.88;;;1.81;73.90
43745;BME280;29359;53.048;8.732;2023-04-06T07:08:38;101927.66;;;1.86;73.26
43745;BME280;29359;53.048;8.732;2023-04-06T07:10:40;101933.88;;;1.91;73.45
43745;BME280;29359;53.048;8.732;2023-04-06T07:12:41;101928.81;;;1.97;73.15
43745;BME280;29359;53.048;8.732;2023-04-06T07:14:43;101933.31;;;2.04;73.08
43745;BME280;29359;53.048;8.732;2023-04-06T07:16:45;101929.97;;;2.10;73.19
43745;BME280;29359;53.048;8.732;2023-04-06T07:18:48;101921.38;;;2.14;72.83
43745;BME280;29359;53.048;8.732;2023-04-06T07:20:49;101931.19;;;2.23;73.05
43745;BME280;29359;53.048;8.732;2023-04-06T07:22:51;101924.28;;;2.25;72.48
43745;BME280;29359;53.048;8.732;2023-04-06T07:24:53;101927.91;;;2.31;72.30
43745;BME280;29359;53.048;8.732;2023-04-06T07:26:58;101923.78;;;2.41;72.50
43745;BME280;29359;53.048;8.732;2023-04-06T07:29:01;101923.06;;;2.48;72.47
43745;BME280;29359;53.048;8.732;2023-04-06T07:31:03;101915.41;;;2.56;72.90
43745;BME280;29359;53.048;8.732;2023-04-06T07:33:05;101915.63;;;2.65;73.18
43745;BME280;29359;53.048;8.732;2023-04-06T07:35:07;101909.69;;;2.72;72.70
43745;BME280;29359;53.048;8.732;2023-04-06T07:37:08;101905.50;;;2.80;72.65
43745;BME280;29359;53.048;8.732;2023-04-06T07:39:10;101908.28;;;2.88;72.35
43745;BME280;29359;53.048;8.732;2023-04-06T07:41:12;101905.81;;;2.95;71.98
43745;BME280;29359;53.048;8.732;2023-04-06T07:43:13;101906.84;;;3.03;71.98
43745;BME280;29359;53.048;8.732;2023-04-06T07:45:15;101903.59;;;3.13;71.52
43745;BME280;29359;53.048;8.732;2023-04-06T07:47:17;101904.59;;;3.20;71.84
43745;BME280;29359;53.048;8.732;2023-04-06T07:49:18;101908.25;;;3.30;71.63
43745;BME280;29359;53.048;8.732;2023-04-06T07:51:21;101903.19;;;3.39;71.53
43745;BME280;29359;53.048;8.732;2023-04-06T07:53:23;101906.00;;;3.48;71.14
43745;BME280;29359;53.048;8.732;2023-04-06T07:55:25;101900.84;;;3.53;70.39
43745;BME280;29359;53.048;8.732;2023-04-06T07:57:26;101895.78;;;3.62;69.72
43745;BME280;29359;53.048;8.732;2023-04-06T07:59:28;101897.66;;;3.70;69.78
43745;BME280;29359;53.048;8.732;2023-04-06T08:01:30;101893.47;;;3.80;68.86
43745;BME280;29359;53.048;8.732;2023-04-06T08:03:34;101892.78;;;3.90;69.02
43745;BME280;29359;53.048;8.732;2023-04-06T08:05:36;101896.44;;;4.01;68.05
43745;BME280;29359;53.048;8.732;2023-04-06T08:07:37;101895.69;;;4.08;67.21
43745;BME280;29359;53.048;8.732;2023-04-06T08:09:39;101894.03;;;4.15;66.82
43745;BME280;29359;53.048;8.732;2023-04-06T08:11:40;101888.94;;;4.23;66.21
43745;BME280;29359;53.048;8.732;2023-04-06T08:13:42;101899.47;;;4.29;66.34
43745;BME280;29359;53.048;8.732;2023-04-06T08:15:44;101890.91;;;4.37;65.82
43745;BME280;29359;53.048;8.732;2023-04-06T08:17:45;101887.56;;;4.49;64.29
43745;BME280;29359;53.048;8.732;2023-04-06T08:19:47;101887.72;;;4.60;65.13
43745;BME280;29359;53.048;8.732;2023-04-06T08:21:49;101891.34;;;4.71;63.71
43745;BME280;29359;53.048;8.732;2023-04-06T08:23:50;101880.13;;;4.80;64.42
43745;BME280;29359;53.048;8.732;2023-04-06T08:25:52;101878.47;;;4.85;64.27
43745;BME280;29359;53.048;8.732;2023-04-06T08:27:55;101875.88;;;4.88;64.02
43745;BME280;29359;53.048;8.732;2023-04-06T08:29:57;101875.91;;;4.92;64.23
43745;BME280;29359;53.048;8.732;2023-04-06T08:31:58;101874.25;;;4.99;64.50
43745;BME280;29359;53.048;8.732;2023-04-06T08:34:00;101875.22;;;5.07;63.82
43745;BME280;29359;53.048;8.732;2023-04-06T08:36:10;101878.78;;;5.15;63.58
43745;BME280;29359;53.048;8.732;2023-04-06T08:38:12;101873.66;;;5.23;63.37
43745;BME280;29359;53.048;8.732;2023-04-06T08:40:14;101876.38;;;5.32;64.11
43745;BME280;29359;53.048;8.732;2023-04-06T08:42:20;101873.81;;;5.40;63.61
43745;BME280;29359;53.048;8.732;2023-04-06T08:44:22;101869.56;;;5.51;62.39
43745;BME280;29359;53.048;8.732;2023-04-06T08:46:25;101872.34;;;5.66;61.84
43745;BME280;29359;53.048;8.732;2023-04-06T08:48:31;101871.59;;;5.82;60.42
43745;BME280;29359;53.048;8.732;2023-04-06T08:50:35;101874.31;;;5.94;59.49
43745;BME280;29359;53.048;8.732;2023-04-06T08:52:37;101870.03;;;6.04;60.11
43745;BME280;29359;53.048;8.732;2023-04-06T08:54:39;101881.47;;;6.14;60.95
43745;BME280;29359;53.048;8.732;2023-04-06T08:56:41;101878.91;;;6.21;59.79
43745;BME280;29359;53.048;8.732;2023-04-06T08:58:44;101883.31;;;6.27;59.29
43745;BME280;29359;53.048;8.732;2023-04-06T09:00:46;101878.09;;;6.32;59.37
43745;BME280;29359;53.048;8.732;2023-04-06T09:02:49;101879.00;;;6.41;58.56
43745;BME280;29359;53.048;8.732;2023-04-06T09:04:52;101874.66;;;6.48;58.58
43745;BME280;29359;53.048;8.732;2023-04-06T09:06:55;101874.72;;;6.52;59.09
43745;BME280;29359;53.048;8.732;2023-04-06T09:08:56;101873.00;;;6.59;58.59
43745;BME280;29359;53.048;8.732;2023-04-06T09:11:00;101870.44;;;6.70;58.14
43745;BME280;29359;53.048;8.732;2023-04-06T09:13:06;101867.84;;;6.79;58.51
43745;BME280;29359;53.048;8.732;2023-04-06T09:15:18;101867.88;;;6.89;58.52
43745;BME280;29359;53.048;8.732;2023-04-06T09:17:25;101867.06;;;6.98;58.51
43745;BME280;29359;53.048;8.732;2023-04-06T09:19:27;101866.19;;;7.04;58.84
43745;BME280;29359;53.048;8.732;2023-04-06T09:21:29;101861.81;;;7.12;57.46
43745;BME280;29359;53.048;8.732;2023-04-06T09:23:30;101868.84;;;7.25;56.93
43745;BME280;29359;53.048;8.732;2023-04-06T09:25:32;101857.47;;;7.34;58.62
43745;BME280;29359;53.048;8.732;2023-04-06T09:27:35;101860.16;;;7.38;58.54
43745;BME280;29359;53.048;8.732;2023-04-06T09:29:37;101863.66;;;7.49;56.67
43745;BME280;29359;53.048;8.732;2023-04-06T09:31:39;101857.53;;;7.58;56.07
43745;BME280;29359;53.048;8.732;2023-04-06T09:33:45;101861.03;;;7.63;57.06
43745;BME280;29359;53.048;8.732;2023-04-06T09:35:49;101853.16;;;7.69;56.70
43745;BME280;29359;53.048;8.732;2023-04-06T09:37:52;101858.41;;;7.77;57.43
43745;BME280;29359;53.048;8.732;2023-04-06T09:40:05;101844.41;;;7.85;56.52
43745;BME280;29359;53.048;8.732;2023-04-06T09:42:07;101844.38;;;7.93;57.00
43745;BME280;29359;53.048;8.732;2023-04-06T09:44:10;101841.75;;;8.01;56.75
43745;BME280;29359;53.048;8.732;2023-04-06T09:46:13;101852.25;;;8.08;56.75
43745;BME280;29359;53.048;8.732;2023-04-06T09:48:15;101851.34;;;8.14;56.70
43745;BME280;29359;53.048;8.732;2023-04-06T09:50:19;101850.47;;;8.21;55.35
43745;BME280;29359;53.048;8.732;2023-04-06T09:52:21;101845.22;;;8.27;56.07
43745;BME280;29359;53.048;8.732;2023-04-06T09:54:28;101841.72;;;8.37;54.17
43745;BME280;29359;53.048;8.732;2023-04-06T09:56:36;101846.94;;;8.49;54.30
43745;BME280;29359;53.048;8.732;2023-04-06T09:58:40;101846.88;;;8.62;54.41
43745;BME280;29359;53.048;8.732;2023-04-06T10:00:51;101849.47;;;8.74;52.25
43745;BME280;29359;53.048;8.732;2023-04-06T10:05:09;101852.84;;;9.03;49.01
43745;BME280;29359;53.048;8.732;2023-04-06T10:07:14;101851.03;;;9.08;48.79
43745;BME280;29359;53.048;8.732;2023-04-06T10:09:16;101849.25;;;9.18;50.92
43745;BME280;29359;53.048;8.732;2023-04-06T10:11:18;101848.31;;;9.27;50.42
43745;BME280;29359;53.048;8.732;2023-04-06T10:13:20;101845.63;;;9.34;51.51
43745;BME280;29359;53.048;8.732;2023-04-06T10:15:22;101844.69;;;9.41;50.75
43745;BME280;29359;53.048;8.732;2023-04-06T10:17:23;101842.88;;;9.50;49.58
43745;BME280;29359;53.048;8.732;2023-04-06T10:19:28;101834.03;;;9.61;51.05
43745;BME280;29359;53.048;8.732;2023-04-06T10:21:35;101841.81;;;9.73;51.67
43745;BME280;29359;53.048;8.732;2023-04-06T10:23:47;101840.84;;;9.84;49.32
43745;BME280;29359;53.048;8.732;2023-04-06T10:25:54;101834.63;;;9.91;50.02
43745;BME280;29359;53.048;8.732;2023-04-06T10:28:05;101838.97;;;9.98;52.10
43745;BME280;29359;53.048;8.732;2023-04-06T10:30:07;101842.38;;;10.09;50.16
43745;BME280;29359;53.048;8.732;2023-04-06T10:32:08;101828.22;;;10.18;52.02
43745;BME280;29359;53.048;8.732;2023-04-06T10:34:10;101836.94;;;10.27;52.27
43745;BME280;29359;53.048;8.732;2023-04-06T10:36:13;101830.66;;;10.41;52.11
43745;BME280;29359;53.048;8.732;2023-04-06T10:38:16;101834.88;;;10.55;49.93
43745;BME280;29359;53.048;8.732;2023-04-06T10:40:25;101834.72;;;10.67;46.96
43745;BME280;29359;53.048;8.732;2023-04-06T10:42:39;101835.44;;;10.80;49.14
43745;BME280;29359;53.048;8.732;2023-04-06T10:44:44;101822.91;;;10.96;50.21
43745;BME280;29359;53.048;8.732;2023-04-06T10:46:55;101832.34;;;11.14;47.88
43745;BME280;29359;53.048;8.732;2023-04-06T10:48:56;101828.63;;;11.25;46.39